createdAt,value
2023-03-27T00:01:12.903Z,1.92
2023-03-27T00:03:40.427Z,1.30
2023-03-27T00:06:16.514Z,1.70
2023-03-27T00:08:44.896Z,1.98
2023-03-27T00:11:12.066Z,1.65
2023-03-27T00:13:48.980Z,1.48
2023-03-27T00:16:21.992Z,1.95
2023-03-27T00:18:49.084Z,1.10
2023-03-27T00:21:16.381Z,1.33
2023-03-27T00:23:43.354Z,1.65
2023-03-27T00:26:12.021Z,1.52
2023-03-27T00:28:39.047Z,1.20
2023-03-27T00:31:13.167Z,1.60
2023-03-27T00:33:40.808Z,1.75
2023-03-27T00:36:08.560Z,1.85
2023-03-27T00:38:36.756Z,1.25
2023-03-27T00:41:03.651Z,1.45
2023-03-27T00:43:35.940Z,1.38
2023-03-27T00:46:21.621Z,1.55
2023-03-27T00:48:52.596Z,1.08
2023-03-27T00:51:22.252Z,1.58
2023-03-27T00:53:49.985Z,1.70
2023-03-27T00:56:18.101Z,2.53
2023-03-27T00:58:49.727Z,1.67
2023-03-27T01:01:19.227Z,1.30
2023-03-27T01:03:47.441Z,1.58
2023-03-27T01:06:17.084Z,2.75
2023-03-27T01:08:45.750Z,1.63
2023-03-27T01:11:24.477Z,1.85
2023-03-27T01:13:57.227Z,3.25
2023-03-27T01:16:29.885Z,1.65
2023-03-27T01:19:09.068Z,1.50
2023-03-27T01:21:51.852Z,1.70
2023-03-27T01:24:46.363Z,1.90
2023-03-27T01:27:19.329Z,1.38
2023-03-27T01:29:54.878Z,1.50
2023-03-27T01:32:59.265Z,1.50
2023-03-27T01:35:38.309Z,1.70
2023-03-27T01:38:17.153Z,1.50
2023-03-27T01:41:01.404Z,2.00
2023-03-27T01:43:40.120Z,1.50
2023-03-27T01:46:19.742Z,1.63
2023-03-27T01:49:09.777Z,1.70
2023-03-27T01:51:43.876Z,1.52
2023-03-27T01:54:21.791Z,1.95
2023-03-27T01:57:04.247Z,1.35
2023-03-27T01:59:36.527Z,1.67
2023-03-27T02:02:17.380Z,1.40
2023-03-27T02:04:47.035Z,1.48
2023-03-27T02:07:19.899Z,1.17
2023-03-27T02:09:51.130Z,1.45
2023-03-27T02:12:29.696Z,1.55
2023-03-27T02:15:23.769Z,1.20
2023-03-27T02:18:08.112Z,0.85
2023-03-27T02:20:37.561Z,1.15
2023-03-27T02:23:06.396Z,1.38
2023-03-27T02:25:35.136Z,1.73
2023-03-27T02:28:17.162Z,1.50
2023-03-27T02:31:05.809Z,1.20
2023-03-27T02:34:06.984Z,1.55
2023-03-27T02:37:02.100Z,1.10
2023-03-27T02:39:34.970Z,1.15
2023-03-27T02:42:06.170Z,1.35
2023-03-27T02:44:46.278Z,2.13
2023-03-27T02:47:39.223Z,1.98
2023-03-27T02:50:32.993Z,1.60
2023-03-27T02:53:04.857Z,1.98
2023-03-27T02:55:41.382Z,1.70
2023-03-27T02:58:17.406Z,1.67
2023-03-27T03:00:50.703Z,1.73
2023-03-27T03:03:21.245Z,1.60
2023-03-27T03:05:48.142Z,1.88
2023-03-27T03:08:14.944Z,1.58
2023-03-27T03:10:45.999Z,1.80
2023-03-27T03:13:12.853Z,1.60
2023-03-27T03:15:39.696Z,1.58
2023-03-27T03:18:07.682Z,1.90
2023-03-27T03:20:35.669Z,1.85
2023-03-27T03:23:02.847Z,2.22
2023-03-27T03:25:31.385Z,1.88
2023-03-27T03:28:01.505Z,1.83
2023-03-27T03:30:30.230Z,2.85
2023-03-27T03:32:57.749Z,2.50
2023-03-27T03:35:25.454Z,2.50
2023-03-27T03:37:55.396Z,2.28
2023-03-27T03:40:22.243Z,2.10
2023-03-27T03:42:51.259Z,2.00
2023-03-27T03:45:18.945Z,2.20
2023-03-27T03:47:46.525Z,2.00
2023-03-27T03:50:13.979Z,2.15
2023-03-27T03:52:41.709Z,1.77
2023-03-27T03:55:11.930Z,2.10
2023-03-27T03:57:38.907Z,3.60
2023-03-27T04:00:12.154Z,2.47
2023-03-27T04:02:41.434Z,2.35
2023-03-27T04:05:10.554Z,2.00
2023-03-27T04:07:40.183Z,1.80
2023-03-27T04:10:08.718Z,2.10
2023-03-27T04:12:35.710Z,2.10
2023-03-27T04:15:02.642Z,1.80
2023-03-27T04:17:29.586Z,1.60
2023-03-27T04:19:57.437Z,1.40
2023-03-27T04:22:24.446Z,1.75
2023-03-27T04:24:51.221Z,1.27
2023-03-27T04:27:18.177Z,1.25
2023-03-27T04:29:47.538Z,1.70
2023-03-27T04:32:19.221Z,1.92
2023-03-27T04:34:48.532Z,1.42
2023-03-27T04:37:15.561Z,1.60
2023-03-27T04:39:46.244Z,2.03
2023-03-27T04:42:16.683Z,1.70
2023-03-27T04:44:46.489Z,2.33
2023-03-27T04:47:13.536Z,1.45
2023-03-27T04:49:46.757Z,1.50
2023-03-27T04:52:14.291Z,1.77
2023-03-27T04:54:42.067Z,1.85
2023-03-27T04:57:10.112Z,2.42
2023-03-27T04:59:37.834Z,1.65
2023-03-27T05:02:05.616Z,1.67
2023-03-27T05:04:33.619Z,1.95
2023-03-27T05:07:02.387Z,2.25
2023-03-27T05:09:29.197Z,2.00
2023-03-27T05:11:56.339Z,2.22
2023-03-27T05:14:23.980Z,2.20
2023-03-27T05:16:52.530Z,2.03
2023-03-27T05:19:20.218Z,1.80
2023-03-27T05:21:47.665Z,2.15
2023-03-27T05:24:15.511Z,1.80
2023-03-27T05:26:43.394Z,1.30
2023-03-27T05:29:10.367Z,1.48
2023-03-27T05:31:37.478Z,1.50
2023-03-27T05:34:05.681Z,1.65
2023-03-27T05:36:32.743Z,1.33
2023-03-27T05:38:59.536Z,1.63
2023-03-27T05:41:26.522Z,1.40
2023-03-27T05:43:53.716Z,1.27
2023-03-27T05:46:21.738Z,1.33
2023-03-27T05:48:49.225Z,1.52
2023-03-27T05:51:16.169Z,1.30
2023-03-27T05:53:43.219Z,1.40
2023-03-27T05:56:10.555Z,1.13
2023-03-27T05:58:37.393Z,1.40
2023-03-27T06:01:04.771Z,1.40
2023-03-27T06:03:35.679Z,1.20
2023-03-27T06:06:10.841Z,1.10
2023-03-27T06:08:37.991Z,1.30
2023-03-27T06:11:12.142Z,1.20
2023-03-27T06:13:39.255Z,1.40
2023-03-27T06:16:06.864Z,2.00
2023-03-27T06:18:34.057Z,1.63
2023-03-27T06:21:01.027Z,1.63
2023-03-27T06:23:27.921Z,1.30
2023-03-27T06:25:55.124Z,1.60
2023-03-27T06:28:22.132Z,1.50
2023-03-27T06:30:49.782Z,1.60
2023-03-27T06:33:16.904Z,1.40
2023-03-27T06:35:52.205Z,1.35
2023-03-27T06:38:21.179Z,1.40
2023-03-27T06:40:48.159Z,1.63
2023-03-27T06:43:18.269Z,1.67
2023-03-27T06:45:47.425Z,1.23
2023-03-27T06:48:21.622Z,1.13
2023-03-27T06:50:50.608Z,1.48
2023-03-27T06:55:48.794Z,1.17
2023-03-27T06:58:16.693Z,1.25
2023-03-27T07:00:43.749Z,1.40
2023-03-27T07:03:11.937Z,1.35
2023-03-27T07:05:41.085Z,0.80
2023-03-27T07:08:20.855Z,1.30
2023-03-27T07:10:59.731Z,1.50
2023-03-27T07:13:27.557Z,1.35
2023-03-27T07:15:55.113Z,2.42
2023-03-27T07:18:22.779Z,2.35
2023-03-27T07:20:50.457Z,2.17
2023-03-27T07:23:17.844Z,1.75
2023-03-27T07:25:44.909Z,2.20
2023-03-27T07:28:16.671Z,2.22
2023-03-27T07:30:43.644Z,3.17
2023-03-27T07:33:11.290Z,2.25
2023-03-27T07:35:43.346Z,1.80
2023-03-27T07:38:10.569Z,1.30
2023-03-27T07:40:40.317Z,1.80
2023-03-27T07:43:07.734Z,1.73
2023-03-27T07:45:35.763Z,1.65
2023-03-27T07:48:08.614Z,1.42
2023-03-27T07:50:36.224Z,1.73
2023-03-27T07:53:04.010Z,1.58
2023-03-27T07:55:31.292Z,1.90
2023-03-27T07:58:01.301Z,1.88
2023-03-27T08:00:31.238Z,1.83
2023-03-27T08:03:07.063Z,1.90
2023-03-27T08:05:34.229Z,1.30
2023-03-27T08:08:01.390Z,1.70
2023-03-27T08:10:28.340Z,1.70
2023-03-27T08:12:55.216Z,1.30
2023-03-27T08:15:25.177Z,1.52
2023-03-27T08:17:54.842Z,1.50
2023-03-27T08:20:24.007Z,1.55
2023-03-27T08:22:54.305Z,1.50
2023-03-27T08:25:22.746Z,1.15
2023-03-27T08:27:50.723Z,1.95
2023-03-27T08:30:18.100Z,1.45
2023-03-27T08:32:45.166Z,1.60
2023-03-27T08:35:12.565Z,1.70
2023-03-27T08:37:39.716Z,1.60
2023-03-27T08:40:14.033Z,2.00
2023-03-27T08:42:44.092Z,1.80
2023-03-27T08:45:18.433Z,1.88
2023-03-27T08:47:55.417Z,1.70
2023-03-27T08:50:34.175Z,1.95
2023-03-27T08:53:03.571Z,1.73
2023-03-27T08:55:44.606Z,1.73
2023-03-27T08:58:19.000Z,2.28
2023-03-27T09:00:53.330Z,2.45
2023-03-27T09:03:23.279Z,1.73
2023-03-27T09:06:13.451Z,1.95
2023-03-27T09:08:43.701Z,1.60
2023-03-27T09:11:29.348Z,1.55
2023-03-27T09:13:56.407Z,1.23
2023-03-27T09:16:49.554Z,1.25
2023-03-27T09:19:44.902Z,1.65
2023-03-27T09:22:25.794Z,1.73
2023-03-27T09:24:58.081Z,1.75
2023-03-27T09:27:32.998Z,1.27
2023-03-27T09:30:18.773Z,1.02
2023-03-27T09:32:51.717Z,1.15
2023-03-27T09:35:20.944Z,1.17
2023-03-27T09:37:54.131Z,1.08
2023-03-27T09:40:31.693Z,1.23
2023-03-27T09:43:08.812Z,0.93
2023-03-27T09:45:40.703Z,0.80
2023-03-27T09:48:15.571Z,0.90
2023-03-27T09:50:47.012Z,0.80
2023-03-27T09:53:16.498Z,1.85
2023-03-27T09:55:52.789Z,0.95
2023-03-27T09:58:28.799Z,1.40
2023-03-27T10:01:13.870Z,1.65
2023-03-27T10:03:44.350Z,1.73
2023-03-27T10:06:15.981Z,1.38
2023-03-27T10:08:47.608Z,1.08
2023-03-27T10:11:17.533Z,0.90
2023-03-27T10:13:47.551Z,0.80
2023-03-27T10:16:17.892Z,0.70
2023-03-27T10:18:47.931Z,1.00
2023-03-27T10:21:31.694Z,1.00
2023-03-27T10:24:04.946Z,1.25
2023-03-27T10:26:33.767Z,0.93
2023-03-27T10:29:16.204Z,0.75
2023-03-27T10:31:50.957Z,0.90
2023-03-27T10:34:32.668Z,1.20
2023-03-27T10:37:04.949Z,0.90
2023-03-27T10:39:35.767Z,0.90
2023-03-27T10:42:07.250Z,0.85
2023-03-27T10:44:37.608Z,0.70
2023-03-27T10:47:15.066Z,0.70
2023-03-27T10:49:47.456Z,1.23
2023-03-27T10:52:39.140Z,0.50
2023-03-27T10:55:24.885Z,0.80
2023-03-27T10:57:56.122Z,0.70
2023-03-27T11:00:33.031Z,0.60
2023-03-27T11:03:02.515Z,0.80
2023-03-27T11:05:35.962Z,1.00
2023-03-27T11:08:08.875Z,1.02
2023-03-27T11:10:47.454Z,0.75
2023-03-27T11:13:23.128Z,1.00
2023-03-27T11:16:15.278Z,0.95
2023-03-27T11:19:11.123Z,1.00
2023-03-27T11:21:49.100Z,1.13
2023-03-27T11:24:35.001Z,0.85
2023-03-27T11:29:40.370Z,0.77
2023-03-27T11:32:17.964Z,1.00
2023-03-27T11:34:54.512Z,1.00
2023-03-27T11:37:24.433Z,1.13
2023-03-27T11:40:13.637Z,1.05
2023-03-27T11:42:44.063Z,1.13
2023-03-27T11:45:17.487Z,1.08
2023-03-27T11:47:44.280Z,1.05
2023-03-27T11:50:48.427Z,1.33
2023-03-27T11:53:18.097Z,1.10
2023-03-27T11:56:03.170Z,1.33
2023-03-27T11:58:32.107Z,0.88
2023-03-27T12:01:12.747Z,0.98
2023-03-27T12:04:19.781Z,1.10
2023-03-27T12:07:03.984Z,1.30
2023-03-27T12:09:49.316Z,1.03
2023-03-27T12:12:42.480Z,0.90
2023-03-27T12:15:46.016Z,1.02
2023-03-27T12:18:16.098Z,1.20
2023-03-27T12:21:10.842Z,1.02
2023-03-27T12:23:49.698Z,1.23
2023-03-27T12:26:41.311Z,0.90
2023-03-27T12:29:38.193Z,1.17
2023-03-27T12:32:29.787Z,0.95
2023-03-27T12:35:03.579Z,1.00
2023-03-27T12:37:55.342Z,1.70
2023-03-27T12:40:28.108Z,0.90
2023-03-27T12:43:09.115Z,1.13
2023-03-27T12:45:41.535Z,1.27
2023-03-27T12:48:20.090Z,0.80
2023-03-27T12:50:56.604Z,0.82
2023-03-27T12:53:29.190Z,0.85
2023-03-27T12:56:18.048Z,0.85
2023-03-27T12:58:51.470Z,0.70
2023-03-27T13:01:51.561Z,0.82
2023-03-27T13:04:53.539Z,1.00
2023-03-27T13:07:54.912Z,1.38
2023-03-27T13:10:26.893Z,0.80
2023-03-27T13:13:12.399Z,1.10
2023-03-27T13:16:15.748Z,0.63
2023-03-27T13:19:09.958Z,1.17
2023-03-27T13:21:49.088Z,0.88
2023-03-27T13:25:04.317Z,0.55
2023-03-27T13:27:52.320Z,0.73
2023-03-27T13:30:46.056Z,0.65
2023-03-27T13:33:16.354Z,0.73
2023-03-27T13:36:02.878Z,1.02
2023-03-27T13:39:13.941Z,0.77
2023-03-27T13:41:43.882Z,0.80
2023-03-27T13:44:43.059Z,0.73
2023-03-27T13:47:28.464Z,0.95
2023-03-27T13:50:23.306Z,0.73
2023-03-27T13:53:02.452Z,1.20
2023-03-27T13:56:06.678Z,1.63
2023-03-27T13:58:52.441Z,1.20
2023-03-27T14:01:49.695Z,0.68
2023-03-27T14:04:38.121Z,1.10
2023-03-27T14:07:18.236Z,1.20
2023-03-27T14:10:14.336Z,0.88
2023-03-27T14:13:34.836Z,0.93
2023-03-27T14:16:32.380Z,1.15
2023-03-27T14:19:28.267Z,1.20
2023-03-27T14:22:14.544Z,1.95
2023-03-27T14:24:47.070Z,1.40
2023-03-27T14:27:21.089Z,1.25
2023-03-27T14:29:52.007Z,1.67
2023-03-27T14:32:19.544Z,1.20
2023-03-27T14:34:54.493Z,0.85
2023-03-27T14:37:31.134Z,1.00
2023-03-27T14:39:59.708Z,0.70
2023-03-27T14:42:32.060Z,0.93
2023-03-27T14:45:22.865Z,0.98
2023-03-27T14:48:17.586Z,0.77
2023-03-27T14:50:46.416Z,0.60
2023-03-27T14:53:18.064Z,0.70
2023-03-27T14:55:45.777Z,1.13
2023-03-27T14:58:18.449Z,1.17
2023-03-27T15:00:51.727Z,0.95
2023-03-27T15:03:23.100Z,0.82
2023-03-27T15:06:04.608Z,0.90
2023-03-27T15:08:38.804Z,0.68
2023-03-27T15:11:15.902Z,0.70
2023-03-27T15:13:45.288Z,0.60
2023-03-27T15:16:19.620Z,0.70
2023-03-27T15:18:53.075Z,0.80
2023-03-27T15:21:39.091Z,0.80
2023-03-27T15:24:10.478Z,0.65
2023-03-27T15:26:38.017Z,0.93
2023-03-27T15:29:32.308Z,0.75
2023-03-27T15:32:01.455Z,1.20
2023-03-27T15:34:37.538Z,3.67
2023-03-27T15:39:34.871Z,0.98
2023-03-27T15:42:10.949Z,1.33
2023-03-27T15:47:25.069Z,0.80
2023-03-27T15:50:16.228Z,0.60
2023-03-27T15:52:53.416Z,0.90
2023-03-27T15:55:37.094Z,1.33
2023-03-27T15:58:48.183Z,1.00
2023-03-27T16:01:27.470Z,0.70
2023-03-27T16:04:01.713Z,1.35
2023-03-27T16:06:40.798Z,1.35
2023-03-27T16:09:33.487Z,0.70
2023-03-27T16:12:01.030Z,0.70
2023-03-27T16:14:36.870Z,0.77
2023-03-27T16:17:14.759Z,0.60
2023-03-27T16:19:55.554Z,0.90
2023-03-27T16:22:33.555Z,0.73
2023-03-27T16:25:01.957Z,0.98
2023-03-27T16:27:58.574Z,1.23
2023-03-27T16:30:29.842Z,1.02
2023-03-27T16:32:56.749Z,1.23
2023-03-27T16:35:23.730Z,1.00
2023-03-27T16:37:50.715Z,1.00
2023-03-27T16:40:17.650Z,1.27
2023-03-27T16:42:44.498Z,1.00
2023-03-27T16:45:11.585Z,1.17
2023-03-27T16:47:39.125Z,1.30
2023-03-27T16:52:36.220Z,1.00
2023-03-27T16:55:04.649Z,0.85
2023-03-27T16:57:33.355Z,2.25
2023-03-27T17:00:00.365Z,1.15
2023-03-27T17:02:28.878Z,1.10
2023-03-27T17:04:56.141Z,0.90
2023-03-27T17:07:27.252Z,1.10
2023-03-27T17:09:54.634Z,1.10
2023-03-27T17:12:21.540Z,1.55
2023-03-27T17:14:48.556Z,1.42
2023-03-27T17:17:15.557Z,1.83
2023-03-27T17:19:42.436Z,1.17
2023-03-27T17:22:12.418Z,1.40
2023-03-27T17:24:53.451Z,1.30
2023-03-27T17:27:24.141Z,1.67
2023-03-27T17:29:51.637Z,1.33
2023-03-27T17:32:18.411Z,1.05
2023-03-27T17:34:45.813Z,1.10
2023-03-27T17:37:12.765Z,1.13
2023-03-27T17:39:39.775Z,1.48
2023-03-27T17:42:06.786Z,1.17
2023-03-27T17:44:33.717Z,1.42
2023-03-27T17:47:01.065Z,1.30
2023-03-27T17:49:29.724Z,1.52
2023-03-27T17:51:56.845Z,1.10
2023-03-27T17:54:24.086Z,1.58
2023-03-27T17:56:51.218Z,1.50
2023-03-27T17:59:18.075Z,1.75
2023-03-27T18:01:45.763Z,1.40
2023-03-27T18:04:13.392Z,1.48
2023-03-27T18:06:40.249Z,1.60
2023-03-27T18:09:07.454Z,1.98
2023-03-27T18:11:34.299Z,1.50
2023-03-27T18:14:01.287Z,1.55
2023-03-27T18:16:28.404Z,1.92
2023-03-27T18:18:55.694Z,1.77
2023-03-27T18:21:22.641Z,1.98
2023-03-27T18:23:49.729Z,2.97
2023-03-27T18:26:17.332Z,1.25
2023-03-27T18:28:44.207Z,1.27
2023-03-27T18:31:12.851Z,1.10
2023-03-27T18:33:39.712Z,1.70
2023-03-27T18:36:10.675Z,1.65
2023-03-27T18:38:40.245Z,1.33
2023-03-27T18:41:07.643Z,1.38
2023-03-27T18:43:34.700Z,1.02
2023-03-27T18:46:04.302Z,1.50
2023-03-27T18:48:31.809Z,1.23
2023-03-27T18:51:01.221Z,1.45
2023-03-27T18:53:28.762Z,1.20
2023-03-27T18:55:58.674Z,0.82
2023-03-27T18:58:27.728Z,0.90
2023-03-27T19:00:55.859Z,1.00
2023-03-27T19:03:24.907Z,1.70
2023-03-27T19:05:52.696Z,1.10
2023-03-27T19:08:20.891Z,0.98
2023-03-27T19:10:47.799Z,1.20
2023-03-27T19:13:14.651Z,1.48
2023-03-27T19:15:42.070Z,1.30
2023-03-27T19:18:09.340Z,2.30
2023-03-27T19:20:36.233Z,1.20
2023-03-27T19:23:03.892Z,1.20
2023-03-27T19:25:34.128Z,1.27
2023-03-27T19:28:05.770Z,1.98
2023-03-27T19:30:33.275Z,1.67
2023-03-27T19:33:00.541Z,1.67
2023-03-27T19:35:27.511Z,1.52
2023-03-27T19:37:54.621Z,1.20
2023-03-27T19:40:21.904Z,1.10
2023-03-27T19:42:48.836Z,1.55
2023-03-27T19:45:16.237Z,1.70
2023-03-27T19:47:43.360Z,1.48
2023-03-27T19:50:10.472Z,1.50
2023-03-27T19:52:37.708Z,1.63
2023-03-27T19:55:05.424Z,1.60
2023-03-27T19:57:32.679Z,1.70
2023-03-27T19:59:59.513Z,1.27
2023-03-27T20:02:27.575Z,1.45
2023-03-27T20:04:54.545Z,2.13
2023-03-27T20:07:21.370Z,1.70
2023-03-27T20:09:48.281Z,1.40
2023-03-27T20:12:15.913Z,1.40
2023-03-27T20:14:44.766Z,1.25
2023-03-27T20:17:28.094Z,1.30
2023-03-27T20:19:55.627Z,1.95
2023-03-27T20:22:22.635Z,1.15
2023-03-27T20:24:49.511Z,1.40
2023-03-27T20:27:19.808Z,1.40
2023-03-27T20:29:47.307Z,1.42
2023-03-27T20:32:14.619Z,1.58
2023-03-27T20:34:41.897Z,1.60
2023-03-27T20:37:14.687Z,1.90
2023-03-27T20:39:47.230Z,1.60
2023-03-27T20:42:16.113Z,1.10
2023-03-27T20:44:45.121Z,1.25
2023-03-27T20:47:13.356Z,1.30
2023-03-27T20:49:42.884Z,1.50
2023-03-27T20:52:12.624Z,1.30
2023-03-27T20:54:39.484Z,1.20
2023-03-27T20:57:06.510Z,1.73
2023-03-27T20:59:33.413Z,1.17
2023-03-27T21:02:01.031Z,1.33
2023-03-27T21:04:31.361Z,1.70
2023-03-27T21:06:58.975Z,1.60
2023-03-27T21:09:27.123Z,1.45
2023-03-27T21:11:55.283Z,1.52
2023-03-27T21:14:22.452Z,1.25
2023-03-27T21:16:49.755Z,1.45
2023-03-27T21:19:17.122Z,3.83
2023-03-27T21:21:44.632Z,4.45
2023-03-27T21:24:11.697Z,19.92
2023-03-27T21:26:38.876Z,12.20
2023-03-27T21:29:05.938Z,14.48
2023-03-27T21:31:32.959Z,16.95
2023-03-27T21:33:59.951Z,20.38
2023-03-27T21:36:29.516Z,12.57
2023-03-27T21:38:57.053Z,22.65
2023-03-27T21:41:25.151Z,9.60
2023-03-27T21:43:52.150Z,4.28
2023-03-27T21:46:19.051Z,3.35
2023-03-27T21:48:50.158Z,2.53
2023-03-27T21:51:16.990Z,3.55
2023-03-27T21:53:43.928Z,2.97
2023-03-27T21:56:10.779Z,2.63
2023-03-27T21:58:38.041Z,2.90
2023-03-27T22:01:05.570Z,2.83
2023-03-27T22:03:32.425Z,2.70
2023-03-27T22:06:12.521Z,3.00
2023-03-27T22:08:41.386Z,2.95
2023-03-27T22:11:08.413Z,3.10
2023-03-27T22:13:39.136Z,3.13
2023-03-27T22:16:14.709Z,4.00
2023-03-27T22:18:41.941Z,3.05
2023-03-27T22:21:22.172Z,3.60
2023-03-27T22:23:51.072Z,3.40
2023-03-27T22:26:23.426Z,5.45
2023-03-27T22:28:52.565Z,3.80
2023-03-27T22:31:20.612Z,4.00
2023-03-27T22:33:48.027Z,3.63
2023-03-27T22:36:14.946Z,3.88
2023-03-27T22:38:42.553Z,4.07
2023-03-27T22:41:12.103Z,4.07
2023-03-27T22:43:39.106Z,3.70
2023-03-27T22:46:14.170Z,4.10
2023-03-27T22:48:42.228Z,3.80
2023-03-27T22:51:11.116Z,3.88
2023-03-27T22:53:38.591Z,4.50
2023-03-27T22:56:06.754Z,4.20
2023-03-27T22:58:34.111Z,3.63
2023-03-27T23:01:02.966Z,3.92
2023-03-27T23:03:29.898Z,4.20
2023-03-27T23:05:57.441Z,4.10
2023-03-27T23:08:29.654Z,4.10
2023-03-27T23:10:59.022Z,3.67
2023-03-27T23:13:27.337Z,5.20
2023-03-27T23:15:54.279Z,3.72
2023-03-27T23:18:23.743Z,3.88
2023-03-27T23:20:55.702Z,3.63
2023-03-27T23:23:23.326Z,3.28
2023-03-27T23:25:50.215Z,3.28
2023-03-27T23:28:17.199Z,4.20
2023-03-27T23:30:51.874Z,4.05
2023-03-27T23:33:18.653Z,4.45
2023-03-27T23:35:45.692Z,4.10
2023-03-27T23:38:12.542Z,4.45
2023-03-27T23:40:39.321Z,5.40
2023-03-27T23:43:06.095Z,4.30
2023-03-27T23:45:33.020Z,4.22
2023-03-27T23:47:59.925Z,4.88
2023-03-27T23:50:26.786Z,4.82
2023-03-27T23:52:53.615Z,4.15
2023-03-27T23:55:20.606Z,4.35
2023-03-27T23:57:47.405Z,4.78
